sensor_id;sensor_type;location;lat;lon;timestamp;temperature;humidity
25450;DHT22;13371;52.080;5.624;2022-09-09T00:02:14;18.00;96.20
25450;DHT22;13371;52.080;5.624;2022-09-09T00:04:58;18.20;96.40
25450;DHT22;13371;52.080;5.624;2022-09-09T00:07:37;18.20;95.90
25450;DHT22;13371;52.080;5.624;2022-09-09T00:18:31;18.50;95.80
25450;DHT22;13371;52.080;5.624;2022-09-09T00:21:15;18.50;95.60
25450;DHT22;13371;52.080;5.624;2022-09-09T00:23:54;18.40;95.70
25450;DHT22;13371;52.080;5.624;2022-09-09T00:32:05;18.20;95.90
25450;DHT22;13371;52.080;5.624;2022-09-09T00:34:35;18.30;96.00
25450;DHT22;13371;52.080;5.624;2022-09-09T00:37:02;18.10;96.10
25450;DHT22;13371;52.080;5.624;2022-09-09T00:39:36;18.30;95.90
25450;DHT22;13371;52.080;5.624;2022-09-09T00:42:23;18.30;95.80
25450;DHT22;13371;52.080;5.624;2022-09-09T00:45:09;18.40;95.40
25450;DHT22;13371;52.080;5.624;2022-09-09T00:47:44;18.30;95.70
25450;DHT22;13371;52.080;5.624;2022-09-09T00:58:31;18.00;96.60
25450;DHT22;13371;52.080;5.624;2022-09-09T01:01:08;18.20;96.20
25450;DHT22;13371;52.080;5.624;2022-09-09T01:03:49;18.00;96.60
25450;DHT22;13371;52.080;5.624;2022-09-09T01:06:34;17.80;96.30
25450;DHT22;13371;52.080;5.624;2022-09-09T01:12:16;17.80;96.80
25450;DHT22;13371;52.080;5.624;2022-09-09T01:14:48;17.40;96.90
25450;DHT22;13371;52.080;5.624;2022-09-09T01:17:20;17.40;97.10
25450;DHT22;13371;52.080;5.624;2022-09-09T01:20:19;17.50;96.90
25450;DHT22;13371;52.080;5.624;2022-09-09T01:26:08;17.50;97.20
25450;DHT22;13371;52.080;5.624;2022-09-09T01:28:36;17.80;96.60
25450;DHT22;13371;52.080;5.624;2022-09-09T01:31:04;17.80;96.60
25450;DHT22;13371;52.080;5.624;2022-09-09T01:33:31;18.00;96.20
25450;DHT22;13371;52.080;5.624;2022-09-09T01:36:06;18.00;96.30
25450;DHT22;13371;52.080;5.624;2022-09-09T01:38:36;18.10;96.10
25450;DHT22;13371;52.080;5.624;2022-09-09T01:41:02;18.10;95.90
25450;DHT22;13371;52.080;5.624;2022-09-09T01:43:28;18.20;95.60
25450;DHT22;13371;52.080;5.624;2022-09-09T01:45:56;18.40;95.50
25450;DHT22;13371;52.080;5.624;2022-09-09T01:48:24;18.10;95.40
25450;DHT22;13371;52.080;5.624;2022-09-09T01:50:50;17.80;96.10
25450;DHT22;13371;52.080;5.624;2022-09-09T01:53:18;17.80;96.10
25450;DHT22;13371;52.080;5.624;2022-09-09T01:55:58;17.80;96.20
25450;DHT22;13371;52.080;5.624;2022-09-09T02:03:56;17.40;95.90
25450;DHT22;13371;52.080;5.624;2022-09-09T02:06:33;17.50;96.30
25450;DHT22;13371;52.080;5.624;2022-09-09T02:09:03;17.30;96.90
25450;DHT22;13371;52.080;5.624;2022-09-09T02:11:29;17.10;97.30
25450;DHT22;13371;52.080;5.624;2022-09-09T02:14:02;17.00;97.30
25450;DHT22;13371;52.080;5.624;2022-09-09T02:16:30;17.00;97.40
25450;DHT22;13371;52.080;5.624;2022-09-09T02:19:14;17.10;96.80
25450;DHT22;13371;52.080;5.624;2022-09-09T02:21:44;16.60;97.90
25450;DHT22;13371;52.080;5.624;2022-09-09T02:24:11;16.30;98.70
25450;DHT22;13371;52.080;5.624;2022-09-09T02:26:41;16.10;99.20
25450;DHT22;13371;52.080;5.624;2022-09-09T02:29:19;16.40;98.80
25450;DHT22;13371;52.080;5.624;2022-09-09T02:31:49;16.40;98.50
25450;DHT22;13371;52.080;5.624;2022-09-09T02:34:17;16.50;98.20
25450;DHT22;13371;52.080;5.624;2022-09-09T02:36:45;16.60;98.20
25450;DHT22;13371;52.080;5.624;2022-09-09T02:39:12;16.50;98.20
25450;DHT22;13371;52.080;5.624;2022-09-09T02:41:40;16.40;98.20
25450;DHT22;13371;52.080;5.624;2022-09-09T02:44:13;16.70;97.70
25450;DHT22;13371;52.080;5.624;2022-09-09T02:49:32;16.60;97.60
25450;DHT22;13371;52.080;5.624;2022-09-09T02:52:06;16.60;97.70
25450;DHT22;13371;52.080;5.624;2022-09-09T02:54:37;16.60;97.90
25450;DHT22;13371;52.080;5.624;2022-09-09T02:59:30;16.50;97.80
25450;DHT22;13371;52.080;5.624;2022-09-09T03:01:56;16.20;98.00
25450;DHT22;13371;52.080;5.624;2022-09-09T03:04:22;16.40;98.00
25450;DHT22;13371;52.080;5.624;2022-09-09T03:06:48;16.50;97.90
25450;DHT22;13371;52.080;5.624;2022-09-09T03:09:14;16.40;97.70
25450;DHT22;13371;52.080;5.624;2022-09-09T03:11:39;16.20;98.40
25450;DHT22;13371;52.080;5.624;2022-09-09T03:14:05;16.40;98.30
25450;DHT22;13371;52.080;5.624;2022-09-09T03:16:31;16.20;98.00
25450;DHT22;13371;52.080;5.624;2022-09-09T03:18:58;16.20;98.60
25450;DHT22;13371;52.080;5.624;2022-09-09T03:21:24;16.20;98.20
25450;DHT22;13371;52.080;5.624;2022-09-09T03:23:50;16.20;98.60
25450;DHT22;13371;52.080;5.624;2022-09-09T03:26:15;16.60;97.90
25450;DHT22;13371;52.080;5.624;2022-09-09T03:28:42;16.10;98.20
25450;DHT22;13371;52.080;5.624;2022-09-09T03:31:07;16.20;98.70
25450;DHT22;13371;52.080;5.624;2022-09-09T03:33:36;16.30;98.40
25450;DHT22;13371;52.080;5.624;2022-09-09T03:36:03;16.10;98.20
25450;DHT22;13371;52.080;5.624;2022-09-09T03:38:28;16.00;98.80
25450;DHT22;13371;52.080;5.624;2022-09-09T03:40:56;16.10;98.20
25450;DHT22;13371;52.080;5.624;2022-09-09T03:43:26;15.90;98.90
25450;DHT22;13371;52.080;5.624;2022-09-09T03:45:52;16.00;98.50
25450;DHT22;13371;52.080;5.624;2022-09-09T03:48:18;15.90;98.70
25450;DHT22;13371;52.080;5.624;2022-09-09T03:50:52;16.20;98.80
25450;DHT22;13371;52.080;5.624;2022-09-09T03:53:20;16.10;98.60
25450;DHT22;13371;52.080;5.624;2022-09-09T03:55:48;16.20;98.90
25450;DHT22;13371;52.080;5.624;2022-09-09T03:58:16;16.30;98.50
25450;DHT22;13371;52.080;5.624;2022-09-09T04:00:52;16.30;98.60
25450;DHT22;13371;52.080;5.624;2022-09-09T04:03:17;16.30;98.50
25450;DHT22;13371;52.080;5.624;2022-09-09T04:05:43;16.00;98.80
25450;DHT22;13371;52.080;5.624;2022-09-09T04:08:09;15.90;99.30
25450;DHT22;13371;52.080;5.624;2022-09-09T04:10:35;15.70;99.90
25450;DHT22;13371;52.080;5.624;2022-09-09T04:13:06;15.80;99.90
25450;DHT22;13371;52.080;5.624;2022-09-09T04:15:32;15.90;99.60
25450;DHT22;13371;52.080;5.624;2022-09-09T04:17:57;16.00;99.50
25450;DHT22;13371;52.080;5.624;2022-09-09T04:20:23;16.20;98.90
25450;DHT22;13371;52.080;5.624;2022-09-09T04:22:49;16.50;98.50
25450;DHT22;13371;52.080;5.624;2022-09-09T04:25:14;16.20;98.70
25450;DHT22;13371;52.080;5.624;2022-09-09T04:27:40;16.10;99.30
25450;DHT22;13371;52.080;5.624;2022-09-09T04:30:06;16.10;99.40
25450;DHT22;13371;52.080;5.624;2022-09-09T04:32:33;16.20;99.00
25450;DHT22;13371;52.080;5.624;2022-09-09T04:34:59;16.30;99.00
25450;DHT22;13371;52.080;5.624;2022-09-09T04:37:25;16.30;98.90
25450;DHT22;13371;52.080;5.624;2022-09-09T04:39:50;16.40;98.80
25450;DHT22;13371;52.080;5.624;2022-09-09T04:42:16;16.40;98.40
25450;DHT22;13371;52.080;5.624;2022-09-09T04:44:43;16.20;98.70
25450;DHT22;13371;52.080;5.624;2022-09-09T04:47:09;16.00;99.30
25450;DHT22;13371;52.080;5.624;2022-09-09T04:49:35;16.30;99.00
25450;DHT22;13371;52.080;5.624;2022-09-09T04:52:02;16.00;99.30
25450;DHT22;13371;52.080;5.624;2022-09-09T04:54:28;16.30;99.10
25450;DHT22;13371;52.080;5.624;2022-09-09T04:56:54;16.60;98.80
25450;DHT22;13371;52.080;5.624;2022-09-09T04:59:20;16.40;98.60
25450;DHT22;13371;52.080;5.624;2022-09-09T05:01:47;16.90;98.00
25450;DHT22;13371;52.080;5.624;2022-09-09T05:04:12;16.30;98.70
25450;DHT22;13371;52.080;5.624;2022-09-09T05:06:40;16.20;99.20
25450;DHT22;13371;52.080;5.624;2022-09-09T05:09:06;15.90;99.50
25450;DHT22;13371;52.080;5.624;2022-09-09T05:11:32;15.80;99.80
25450;DHT22;13371;52.080;5.624;2022-09-09T05:14:01;16.00;99.60
25450;DHT22;13371;52.080;5.624;2022-09-09T05:16:26;16.20;99.10
25450;DHT22;13371;52.080;5.624;2022-09-09T05:18:52;16.30;99.20
25450;DHT22;13371;52.080;5.624;2022-09-09T05:21:19;16.50;99.00
25450;DHT22;13371;52.080;5.624;2022-09-09T05:23:45;16.70;98.30
25450;DHT22;13371;52.080;5.624;2022-09-09T05:26:19;16.70;98.30
25450;DHT22;13371;52.080;5.624;2022-09-09T05:28:45;16.50;98.70
25450;DHT22;13371;52.080;5.624;2022-09-09T05:31:12;16.40;99.00
25450;DHT22;13371;52.080;5.624;2022-09-09T05:33:39;16.60;98.80
25450;DHT22;13371;52.080;5.624;2022-09-09T05:36:10;16.40;99.00
25450;DHT22;13371;52.080;5.624;2022-09-09T05:38:38;16.10;99.40
25450;DHT22;13371;52.080;5.624;2022-09-09T05:41:05;16.40;99.50
25450;DHT22;13371;52.080;5.624;2022-09-09T05:43:30;16.70;98.90
25450;DHT22;13371;52.080;5.624;2022-09-09T05:46:05;16.60;98.90
25450;DHT22;13371;52.080;5.624;2022-09-09T05:48:42;16.70;98.50
25450;DHT22;13371;52.080;5.624;2022-09-09T05:51:13;16.30;99.90
25450;DHT22;13371;52.080;5.624;2022-09-09T05:53:41;16.20;99.90
25450;DHT22;13371;52.080;5.624;2022-09-09T05:56:15;16.40;99.70
25450;DHT22;13371;52.080;5.624;2022-09-09T05:58:41;16.60;99.30
25450;DHT22;13371;52.080;5.624;2022-09-09T06:01:26;16.80;99.10
25450;DHT22;13371;52.080;5.624;2022-09-09T06:03:52;17.00;98.80
25450;DHT22;13371;52.080;5.624;2022-09-09T06:06:20;16.90;98.90
25450;DHT22;13371;52.080;5.624;2022-09-09T06:08:47;16.70;99.00
25450;DHT22;13371;52.080;5.624;2022-09-09T06:11:19;16.60;99.90
25450;DHT22;13371;52.080;5.624;2022-09-09T06:13:45;16.90;99.40
25450;DHT22;13371;52.080;5.624;2022-09-09T06:16:12;16.80;99.30
25450;DHT22;13371;52.080;5.624;2022-09-09T06:18:39;17.10;99.20
25450;DHT22;13371;52.080;5.624;2022-09-09T06:21:07;17.20;99.10
25450;DHT22;13371;52.080;5.624;2022-09-09T06:23:33;17.20;98.90
25450;DHT22;13371;52.080;5.624;2022-09-09T06:28:38;17.10;99.30
25450;DHT22;13371;52.080;5.624;2022-09-09T06:31:08;17.00;99.50
25450;DHT22;13371;52.080;5.624;2022-09-09T06:33:38;17.20;99.10
25450;DHT22;13371;52.080;5.624;2022-09-09T06:36:14;17.30;98.90
25450;DHT22;13371;52.080;5.624;2022-09-09T06:38:40;17.20;99.60
25450;DHT22;13371;52.080;5.624;2022-09-09T06:41:07;17.30;99.00
25450;DHT22;13371;52.080;5.624;2022-09-09T06:43:33;17.30;99.20
25450;DHT22;13371;52.080;5.624;2022-09-09T06:46:05;17.40;99.00
25450;DHT22;13371;52.080;5.624;2022-09-09T06:48:33;17.30;99.20
25450;DHT22;13371;52.080;5.624;2022-09-09T06:51:03;17.20;99.40
25450;DHT22;13371;52.080;5.624;2022-09-09T06:53:30;17.20;99.60
25450;DHT22;13371;52.080;5.624;2022-09-09T06:55:55;17.20;99.60
25450;DHT22;13371;52.080;5.624;2022-09-09T06:58:21;17.00;99.90
25450;DHT22;13371;52.080;5.624;2022-09-09T07:00:49;17.30;99.80
25450;DHT22;13371;52.080;5.624;2022-09-09T07:03:15;17.30;99.60
25450;DHT22;13371;52.080;5.624;2022-09-09T07:05:41;17.40;99.30
25450;DHT22;13371;52.080;5.624;2022-09-09T07:08:06;17.60;99.30
25450;DHT22;13371;52.080;5.624;2022-09-09T07:10:32;17.90;98.90
25450;DHT22;13371;52.080;5.624;2022-09-09T07:12:59;18.10;98.40
25450;DHT22;13371;52.080;5.624;2022-09-09T07:15:25;17.90;98.40
25450;DHT22;13371;52.080;5.624;2022-09-09T07:17:51;17.90;98.90
25450;DHT22;13371;52.080;5.624;2022-09-09T07:20:19;17.80;98.90
25450;DHT22;13371;52.080;5.624;2022-09-09T07:22:45;17.70;99.10
25450;DHT22;13371;52.080;5.624;2022-09-09T07:25:11;17.60;99.00
25450;DHT22;13371;52.080;5.624;2022-09-09T07:27:36;17.60;99.30
25450;DHT22;13371;52.080;5.624;2022-09-09T07:30:03;17.80;99.40
25450;DHT22;13371;52.080;5.624;2022-09-09T07:32:29;18.00;98.80
25450;DHT22;13371;52.080;5.624;2022-09-09T07:34:55;18.00;98.00
25450;DHT22;13371;52.080;5.624;2022-09-09T07:37:23;18.00;98.90
25450;DHT22;13371;52.080;5.624;2022-09-09T07:39:49;18.30;98.20
25450;DHT22;13371;52.080;5.624;2022-09-09T07:42:16;18.20;98.40
25450;DHT22;13371;52.080;5.624;2022-09-09T07:44:42;18.10;98.50
25450;DHT22;13371;52.080;5.624;2022-09-09T07:47:07;18.00;98.20
25450;DHT22;13371;52.080;5.624;2022-09-09T07:49:33;17.80;98.80
25450;DHT22;13371;52.080;5.624;2022-09-09T07:52:00;17.90;98.60
25450;DHT22;13371;52.080;5.624;2022-09-09T07:54:25;18.00;98.40
25450;DHT22;13371;52.080;5.624;2022-09-09T07:56:51;18.00;98.50
25450;DHT22;13371;52.080;5.624;2022-09-09T07:59:18;18.10;98.20
25450;DHT22;13371;52.080;5.624;2022-09-09T08:01:49;18.10;98.00
25450;DHT22;13371;52.080;5.624;2022-09-09T08:04:18;18.30;97.80
25450;DHT22;13371;52.080;5.624;2022-09-09T08:06:53;18.30;97.70
25450;DHT22;13371;52.080;5.624;2022-09-09T08:09:19;18.10;97.90
25450;DHT22;13371;52.080;5.624;2022-09-09T08:11:46;18.20;97.70
25450;DHT22;13371;52.080;5.624;2022-09-09T08:14:13;18.30;97.30
25450;DHT22;13371;52.080;5.624;2022-09-09T08:16:41;18.00;97.70
25450;DHT22;13371;52.080;5.624;2022-09-09T08:19:08;18.10;97.70
25450;DHT22;13371;52.080;5.624;2022-09-09T08:21:35;18.20;97.60
25450;DHT22;13371;52.080;5.624;2022-09-09T08:24:03;18.20;97.70
25450;DHT22;13371;52.080;5.624;2022-09-09T08:26:49;18.10;97.30
25450;DHT22;13371;52.080;5.624;2022-09-09T08:29:15;18.00;97.60
25450;DHT22;13371;52.080;5.624;2022-09-09T08:34:11;18.10;97.80
25450;DHT22;13371;52.080;5.624;2022-09-09T08:36:40;18.10;97.90
25450;DHT22;13371;52.080;5.624;2022-09-09T08:39:08;18.20;97.70
25450;DHT22;13371;52.080;5.624;2022-09-09T08:52:19;18.70;96.40
25450;DHT22;13371;52.080;5.624;2022-09-09T08:54:46;18.60;96.10
25450;DHT22;13371;52.080;5.624;2022-09-09T08:57:16;18.50;96.40
25450;DHT22;13371;52.080;5.624;2022-09-09T08:59:43;18.60;97.00
25450;DHT22;13371;52.080;5.624;2022-09-09T09:02:34;18.70;96.40
25450;DHT22;13371;52.080;5.624;2022-09-09T09:05:35;18.90;96.20
25450;DHT22;13371;52.080;5.624;2022-09-09T09:08:25;19.00;95.80
25450;DHT22;13371;52.080;5.624;2022-09-09T09:10:55;19.00;95.50
25450;DHT22;13371;52.080;5.624;2022-09-09T09:16:34;18.90;95.40
25450;DHT22;13371;52.080;5.624;2022-09-09T09:19:02;18.40;95.30
25450;DHT22;13371;52.080;5.624;2022-09-09T09:21:44;18.40;96.00
25450;DHT22;13371;52.080;5.624;2022-09-09T09:24:40;18.40;96.10
25450;DHT22;13371;52.080;5.624;2022-09-09T09:27:16;18.50;95.70
25450;DHT22;13371;52.080;5.624;2022-09-09T09:29:44;18.60;96.00
25450;DHT22;13371;52.080;5.624;2022-09-09T09:32:14;18.60;95.90
25450;DHT22;13371;52.080;5.624;2022-09-09T09:34:41;18.40;96.20
25450;DHT22;13371;52.080;5.624;2022-09-09T09:37:26;18.70;96.10
25450;DHT22;13371;52.080;5.624;2022-09-09T09:39:53;18.50;96.20
25450;DHT22;13371;52.080;5.624;2022-09-09T09:42:19;18.80;95.70
25450;DHT22;13371;52.080;5.624;2022-09-09T09:44:45;18.90;95.30
25450;DHT22;13371;52.080;5.624;2022-09-09T09:47:15;19.00;95.70
25450;DHT22;13371;52.080;5.624;2022-09-09T09:50:00;19.10;95.20
25450;DHT22;13371;52.080;5.624;2022-09-09T09:52:31;18.90;95.00
25450;DHT22;13371;52.080;5.624;2022-09-09T09:54:58;18.90;94.60
25450;DHT22;13371;52.080;5.624;2022-09-09T09:57:27;18.80;95.30
25450;DHT22;13371;52.080;5.624;2022-09-09T10:00:18;18.80;95.10
25450;DHT22;13371;52.080;5.624;2022-09-09T10:02:45;18.80;94.60
25450;DHT22;13371;52.080;5.624;2022-09-09T10:05:20;19.00;95.00
25450;DHT22;13371;52.080;5.624;2022-09-09T10:07:47;18.70;95.20
25450;DHT22;13371;52.080;5.624;2022-09-09T10:10:31;18.80;95.40
25450;DHT22;13371;52.080;5.624;2022-09-09T10:13:06;18.70;95.50
25450;DHT22;13371;52.080;5.624;2022-09-09T10:19:00;18.80;94.80
25450;DHT22;13371;52.080;5.624;2022-09-09T10:32:43;18.90;95.20
25450;DHT22;13371;52.080;5.624;2022-09-09T10:35:17;19.00;94.60
25450;DHT22;13371;52.080;5.624;2022-09-09T10:51:43;18.60;97.10
25450;DHT22;13371;52.080;5.624;2022-09-09T10:56:44;18.60;97.90
25450;DHT22;13371;52.080;5.624;2022-09-09T10:59:19;18.60;98.20
25450;DHT22;13371;52.080;5.624;2022-09-09T11:01:53;18.50;98.10
25450;DHT22;13371;52.080;5.624;2022-09-09T11:04:30;18.40;98.80
25450;DHT22;13371;52.080;5.624;2022-09-09T11:07:01;18.60;98.70
25450;DHT22;13371;52.080;5.624;2022-09-09T11:09:39;18.60;98.00
25450;DHT22;13371;52.080;5.624;2022-09-09T11:12:15;18.60;98.60
25450;DHT22;13371;52.080;5.624;2022-09-09T11:14:47;18.40;99.90
25450;DHT22;13371;52.080;5.624;2022-09-09T11:17:28;18.30;99.90
25450;DHT22;13371;52.080;5.624;2022-09-09T11:19:56;18.30;99.90
25450;DHT22;13371;52.080;5.624;2022-09-09T11:22:26;18.80;99.90
25450;DHT22;13371;52.080;5.624;2022-09-09T11:27:35;19.00;98.90
25450;DHT22;13371;52.080;5.624;2022-09-09T11:30:18;18.90;98.90
25450;DHT22;13371;52.080;5.624;2022-09-09T11:32:52;18.70;99.20
25450;DHT22;13371;52.080;5.624;2022-09-09T11:40:30;18.90;99.30
25450;DHT22;13371;52.080;5.624;2022-09-09T11:43:15;18.80;99.90
25450;DHT22;13371;52.080;5.624;2022-09-09T11:45:43;18.80;99.90
25450;DHT22;13371;52.080;5.624;2022-09-09T11:48:31;19.00;99.90
25450;DHT22;13371;52.080;5.624;2022-09-09T11:53:50;19.30;99.40
25450;DHT22;13371;52.080;5.624;2022-09-09T11:56:41;19.20;98.30
25450;DHT22;13371;52.080;5.624;2022-09-09T11:59:20;19.20;98.30
25450;DHT22;13371;52.080;5.624;2022-09-09T12:01:54;19.20;99.10
25450;DHT22;13371;52.080;5.624;2022-09-09T12:07:24;19.20;98.50
25450;DHT22;13371;52.080;5.624;2022-09-09T12:17:25;19.20;97.70
25450;DHT22;13371;52.080;5.624;2022-09-09T12:20:16;19.30;98.10
25450;DHT22;13371;52.080;5.624;2022-09-09T12:25:46;18.90;97.50
25450;DHT22;13371;52.080;5.624;2022-09-09T12:28:20;18.70;98.20
25450;DHT22;13371;52.080;5.624;2022-09-09T12:31:10;19.10;98.20
25450;DHT22;13371;52.080;5.624;2022-09-09T12:33:38;19.00;98.10
25450;DHT22;13371;52.080;5.624;2022-09-09T12:36:12;19.20;98.00
25450;DHT22;13371;52.080;5.624;2022-09-09T12:38:40;19.00;97.50
25450;DHT22;13371;52.080;5.624;2022-09-09T12:41:24;18.80;98.00
25450;DHT22;13371;52.080;5.624;2022-09-09T12:43:51;18.80;97.70
25450;DHT22;13371;52.080;5.624;2022-09-09T12:46:24;19.00;97.50
25450;DHT22;13371;52.080;5.624;2022-09-09T12:48:53;19.10;97.70
25450;DHT22;13371;52.080;5.624;2022-09-09T12:51:25;19.10;97.40
25450;DHT22;13371;52.080;5.624;2022-09-09T12:53:52;19.00;97.40
25450;DHT22;13371;52.080;5.624;2022-09-09T12:56:23;19.10;97.50
25450;DHT22;13371;52.080;5.624;2022-09-09T12:58:53;18.80;98.00
25450;DHT22;13371;52.080;5.624;2022-09-09T13:01:24;19.20;97.70
25450;DHT22;13371;52.080;5.624;2022-09-09T13:03:51;19.30;97.20
25450;DHT22;13371;52.080;5.624;2022-09-09T13:06:23;19.20;97.10
25450;DHT22;13371;52.080;5.624;2022-09-09T13:08:51;19.10;97.50
25450;DHT22;13371;52.080;5.624;2022-09-09T13:13:55;19.00;97.60
25450;DHT22;13371;52.080;5.624;2022-09-09T13:16:33;19.10;97.40
25450;DHT22;13371;52.080;5.624;2022-09-09T13:19:07;19.20;97.10
25450;DHT22;13371;52.080;5.624;2022-09-09T13:21:38;19.50;96.90
25450;DHT22;13371;52.080;5.624;2022-09-09T13:24:06;19.40;96.80
25450;DHT22;13371;52.080;5.624;2022-09-09T13:26:34;19.50;96.80
25450;DHT22;13371;52.080;5.624;2022-09-09T13:29:17;19.80;96.00
25450;DHT22;13371;52.080;5.624;2022-09-09T13:31:44;19.70;96.40
25450;DHT22;13371;52.080;5.624;2022-09-09T13:34:27;19.70;95.60
25450;DHT22;13371;52.080;5.624;2022-09-09T13:36:58;19.40;95.90
25450;DHT22;13371;52.080;5.624;2022-09-09T13:39:24;19.50;96.20
25450;DHT22;13371;52.080;5.624;2022-09-09T13:41:50;19.30;96.80
25450;DHT22;13371;52.080;5.624;2022-09-09T13:44:24;19.30;96.70
25450;DHT22;13371;52.080;5.624;2022-09-09T13:49:31;19.60;96.00
25450;DHT22;13371;52.080;5.624;2022-09-09T13:52:10;19.70;96.00
25450;DHT22;13371;52.080;5.624;2022-09-09T13:54:37;20.00;95.60
25450;DHT22;13371;52.080;5.624;2022-09-09T13:57:03;20.20;95.60
25450;DHT22;13371;52.080;5.624;2022-09-09T13:59:30;20.10;94.70
25450;DHT22;13371;52.080;5.624;2022-09-09T14:01:57;20.40;95.10
25450;DHT22;13371;52.080;5.624;2022-09-09T14:04:23;20.70;94.60
25450;DHT22;13371;52.080;5.624;2022-09-09T14:06:49;20.30;94.10
25450;DHT22;13371;52.080;5.624;2022-09-09T14:09:16;20.00;95.20
25450;DHT22;13371;52.080;5.624;2022-09-09T14:11:44;20.10;95.40
25450;DHT22;13371;52.080;5.624;2022-09-09T14:14:10;20.20;94.40
25450;DHT22;13371;52.080;5.624;2022-09-09T14:16:36;20.20;94.30
25450;DHT22;13371;52.080;5.624;2022-09-09T14:19:03;20.20;94.40
25450;DHT22;13371;52.080;5.624;2022-09-09T14:21:28;20.40;94.10
25450;DHT22;13371;52.080;5.624;2022-09-09T14:23:54;20.10;93.90
25450;DHT22;13371;52.080;5.624;2022-09-09T14:26:21;20.10;93.90
25450;DHT22;13371;52.080;5.624;2022-09-09T14:28:47;20.20;94.50
25450;DHT22;13371;52.080;5.624;2022-09-09T14:31:13;20.30;93.80
25450;DHT22;13371;52.080;5.624;2022-09-09T14:33:39;20.30;94.30
25450;DHT22;13371;52.080;5.624;2022-09-09T14:36:05;20.20;94.10
25450;DHT22;13371;52.080;5.624;2022-09-09T14:38:33;20.40;94.90
25450;DHT22;13371;52.080;5.624;2022-09-09T14:41:00;20.80;94.50
25450;DHT22;13371;52.080;5.624;2022-09-09T14:43:28;21.10;93.70
25450;DHT22;13371;52.080;5.624;2022-09-09T14:45:55;21.00;93.20
25450;DHT22;13371;52.080;5.624;2022-09-09T14:48:21;20.90;93.90
25450;DHT22;13371;52.080;5.624;2022-09-09T14:50:46;21.10;93.80
25450;DHT22;13371;52.080;5.624;2022-09-09T14:53:12;21.20;92.80
25450;DHT22;13371;52.080;5.624;2022-09-09T14:55:38;20.70;94.00
25450;DHT22;13371;52.080;5.624;2022-09-09T14:58:04;20.90;94.20
25450;DHT22;13371;52.080;5.624;2022-09-09T15:00:30;21.20;93.50
25450;DHT22;13371;52.080;5.624;2022-09-09T15:02:56;21.10;93.20
25450;DHT22;13371;52.080;5.624;2022-09-09T15:05:22;21.00;93.60
25450;DHT22;13371;52.080;5.624;2022-09-09T15:07:49;21.30;92.90
25450;DHT22;13371;52.080;5.624;2022-09-09T15:10:15;21.20;93.30
25450;DHT22;13371;52.080;5.624;2022-09-09T15:12:42;21.00;93.40
25450;DHT22;13371;52.080;5.624;2022-09-09T15:15:09;21.20;93.60
25450;DHT22;13371;52.080;5.624;2022-09-09T15:17:34;21.30;92.90
25450;DHT22;13371;52.080;5.624;2022-09-09T15:20:02;21.10;92.80
25450;DHT22;13371;52.080;5.624;2022-09-09T15:22:28;20.80;94.20
25450;DHT22;13371;52.080;5.624;2022-09-09T15:24:53;21.00;94.00
25450;DHT22;13371;52.080;5.624;2022-09-09T15:27:19;21.40;93.10
25450;DHT22;13371;52.080;5.624;2022-09-09T15:29:45;21.70;92.30
25450;DHT22;13371;52.080;5.624;2022-09-09T15:32:11;21.60;91.30
25450;DHT22;13371;52.080;5.624;2022-09-09T15:34:36;21.50;91.90
25450;DHT22;13371;52.080;5.624;2022-09-09T15:37:02;21.70;92.30
25450;DHT22;13371;52.080;5.624;2022-09-09T15:39:27;21.40;91.90
25450;DHT22;13371;52.080;5.624;2022-09-09T15:41:53;21.70;91.60
25450;DHT22;13371;52.080;5.624;2022-09-09T15:44:18;21.70;90.90
25450;DHT22;13371;52.080;5.624;2022-09-09T15:46:45;21.50;91.50
25450;DHT22;13371;52.080;5.624;2022-09-09T15:49:13;21.70;91.90
25450;DHT22;13371;52.080;5.624;2022-09-09T15:51:41;22.00;91.80
25450;DHT22;13371;52.080;5.624;2022-09-09T15:54:09;22.10;91.30
25450;DHT22;13371;52.080;5.624;2022-09-09T15:56:34;22.20;91.40
25450;DHT22;13371;52.080;5.624;2022-09-09T15:59:01;22.30;91.20
25450;DHT22;13371;52.080;5.624;2022-09-09T16:01:31;22.00;90.60
25450;DHT22;13371;52.080;5.624;2022-09-09T16:04:07;22.00;91.10
25450;DHT22;13371;52.080;5.624;2022-09-09T16:06:33;22.20;88.90
25450;DHT22;13371;52.080;5.624;2022-09-09T16:09:00;22.10;88.70
25450;DHT22;13371;52.080;5.624;2022-09-09T16:11:36;22.00;89.20
25450;DHT22;13371;52.080;5.624;2022-09-09T16:14:02;22.10;88.50
25450;DHT22;13371;52.080;5.624;2022-09-09T16:16:29;22.00;88.60
25450;DHT22;13371;52.080;5.624;2022-09-09T16:18:57;21.90;87.20
25450;DHT22;13371;52.080;5.624;2022-09-09T16:21:24;21.50;87.30
25450;DHT22;13371;52.080;5.624;2022-09-09T16:23:52;21.20;88.70
25450;DHT22;13371;52.080;5.624;2022-09-09T16:26:19;21.10;89.60
25450;DHT22;13371;52.080;5.624;2022-09-09T16:28:45;21.20;89.60
25450;DHT22;13371;52.080;5.624;2022-09-09T16:31:14;21.10;89.90
25450;DHT22;13371;52.080;5.624;2022-09-09T16:33:40;21.10;89.90
25450;DHT22;13371;52.080;5.624;2022-09-09T16:36:08;21.10;89.90
25450;DHT22;13371;52.080;5.624;2022-09-09T16:38:36;21.10;88.80
25450;DHT22;13371;52.080;5.624;2022-09-09T16:41:03;21.20;90.10
25450;DHT22;13371;52.080;5.624;2022-09-09T16:43:31;21.30;89.50
25450;DHT22;13371;52.080;5.624;2022-09-09T16:45:57;21.40;89.00
25450;DHT22;13371;52.080;5.624;2022-09-09T16:48:22;21.40;88.90
25450;DHT22;13371;52.080;5.624;2022-09-09T16:50:48;21.70;88.50
25450;DHT22;13371;52.080;5.624;2022-09-09T16:53:14;21.80;88.00
25450;DHT22;13371;52.080;5.624;2022-09-09T16:55:40;21.80;88.40
25450;DHT22;13371;52.080;5.624;2022-09-09T16:58:07;21.90;87.90
25450;DHT22;13371;52.080;5.624;2022-09-09T17:00:34;21.70;89.10
25450;DHT22;13371;52.080;5.624;2022-09-09T17:03:00;21.70;89.80
25450;DHT22;13371;52.080;5.624;2022-09-09T17:05:25;21.70;90.00
25450;DHT22;13371;52.080;5.624;2022-09-09T17:07:51;21.70;89.70
25450;DHT22;13371;52.080;5.624;2022-09-09T17:10:17;21.40;90.50
25450;DHT22;13371;52.080;5.624;2022-09-09T17:12:42;21.20;90.80
25450;DHT22;13371;52.080;5.624;2022-09-09T17:15:08;21.40;90.40
25450;DHT22;13371;52.080;5.624;2022-09-09T17:17:34;21.40;90.40
25450;DHT22;13371;52.080;5.624;2022-09-09T17:20:00;21.10;90.60
25450;DHT22;13371;52.080;5.624;2022-09-09T17:22:27;21.30;90.80
25450;DHT22;13371;52.080;5.624;2022-09-09T17:24:53;21.10;90.80
25450;DHT22;13371;52.080;5.624;2022-09-09T17:27:18;21.20;90.70
25450;DHT22;13371;52.080;5.624;2022-09-09T17:29:44;21.20;91.00
25450;DHT22;13371;52.080;5.624;2022-09-09T17:32:09;21.10;91.00
25450;DHT22;13371;52.080;5.624;2022-09-09T17:34:35;20.90;91.10
25450;DHT22;13371;52.080;5.624;2022-09-09T17:37:01;20.90;91.60
25450;DHT22;13371;52.080;5.624;2022-09-09T17:39:27;20.90;91.60
25450;DHT22;13371;52.080;5.624;2022-09-09T17:41:53;20.90;91.50
25450;DHT22;13371;52.080;5.624;2022-09-09T17:44:20;21.00;91.50